sensor_id;sensor_type;location;lat;lon;timestamp;P1;durP1;ratioP1;P2;durP2;ratioP2
10479;SDS011;12789;42.610;23.040;2022-08-03T00:02:17;2.90;;;1.30;;
10479;SDS011;12789;42.610;23.040;2022-08-03T00:04:45;2.65;;;1.65;;
10479;SDS011;12789;42.610;23.040;2022-08-03T00:07:12;3.65;;;1.52;;
10479;SDS011;12789;42.610;23.040;2022-08-03T00:09:38;4.28;;;1.75;;
10479;SDS011;12789;42.610;23.040;2022-08-03T00:12:06;5.55;;;1.52;;
10479;SDS011;12789;42.610;23.040;2022-08-03T00:14:33;2.72;;;1.70;;
10479;SDS011;12789;42.610;23.040;2022-08-03T00:17:02;1.52;;;1.30;;
10479;SDS011;12789;42.610;23.040;2022-08-03T00:19:29;2.65;;;1.48;;
10479;SDS011;12789;42.610;23.040;2022-08-03T00:21:56;2.75;;;1.50;;
10479;SDS011;12789;42.610;23.040;2022-08-03T00:24:23;2.55;;;1.55;;
10479;SDS011;12789;42.610;23.040;2022-08-03T00:26:50;3.63;;;1.20;;
10479;SDS011;12789;42.610;23.040;2022-08-03T00:29:17;1.30;;;1.20;;
10479;SDS011;12789;42.610;23.040;2022-08-03T00:31:44;1.77;;;1.38;;
10479;SDS011;12789;42.610;23.040;2022-08-03T00:34:12;4.90;;;1.40;;
10479;SDS011;12789;42.610;23.040;2022-08-03T00:36:39;1.63;;;1.52;;
10479;SDS011;12789;42.610;23.040;2022-08-03T00:39:06;3.50;;;1.52;;
10479;SDS011;12789;42.610;23.040;2022-08-03T00:41:34;1.83;;;1.58;;
10479;SDS011;12789;42.610;23.040;2022-08-03T00:44:01;2.15;;;1.77;;
10479;SDS011;12789;42.610;23.040;2022-08-03T00:46:28;3.08;;;1.90;;
10479;SDS011;12789;42.610;23.040;2022-08-03T00:48:55;2.17;;;1.90;;
10479;SDS011;12789;42.610;23.040;2022-08-03T00:51:24;2.85;;;1.80;;
10479;SDS011;12789;42.610;23.040;2022-08-03T00:53:51;3.50;;;1.92;;
10479;SDS011;12789;42.610;23.040;2022-08-03T00:56:18;3.85;;;1.85;;
10479;SDS011;12789;42.610;23.040;2022-08-03T00:58:45;3.90;;;1.80;;
10479;SDS011;12789;42.610;23.040;2022-08-03T01:01:12;3.58;;;1.83;;
10479;SDS011;12789;42.610;23.040;2022-08-03T01:03:39;3.22;;;2.00;;
10479;SDS011;12789;42.610;23.040;2022-08-03T01:06:09;2.00;;;1.70;;
10479;SDS011;12789;42.610;23.040;2022-08-03T01:08:45;2.97;;;1.83;;
10479;SDS011;12789;42.610;23.040;2022-08-03T01:11:18;3.80;;;2.00;;
10479;SDS011;12789;42.610;23.040;2022-08-03T01:13:56;3.08;;;2.10;;
10479;SDS011;12789;42.610;23.040;2022-08-03T01:16:31;2.00;;;1.77;;
10479;SDS011;12789;42.610;23.040;2022-08-03T01:19:10;3.53;;;1.85;;
10479;SDS011;12789;42.610;23.040;2022-08-03T01:21:50;2.17;;;1.88;;
10479;SDS011;12789;42.610;23.040;2022-08-03T01:24:29;4.32;;;2.00;;
10479;SDS011;12789;42.610;23.040;2022-08-03T01:27:06;2.15;;;1.90;;
10479;SDS011;12789;42.610;23.040;2022-08-03T01:29:51;2.65;;;2.00;;
10479;SDS011;12789;42.610;23.040;2022-08-03T01:32:24;3.35;;;1.65;;
10479;SDS011;12789;42.610;23.040;2022-08-03T01:34:58;4.47;;;1.60;;
10479;SDS011;12789;42.610;23.040;2022-08-03T01:37:31;3.08;;;1.58;;
10479;SDS011;12789;42.610;23.040;2022-08-03T01:40:03;3.70;;;1.60;;
10479;SDS011;12789;42.610;23.040;2022-08-03T01:42:31;3.38;;;2.10;;
10479;SDS011;12789;42.610;23.040;2022-08-03T01:45:02;2.60;;;1.83;;
10479;SDS011;12789;42.610;23.040;2022-08-03T01:47:30;4.82;;;1.60;;
10479;SDS011;12789;42.610;23.040;2022-08-03T01:49:58;2.65;;;1.92;;
10479;SDS011;12789;42.610;23.040;2022-08-03T01:52:27;3.42;;;1.60;;
10479;SDS011;12789;42.610;23.040;2022-08-03T01:54:56;1.70;;;1.60;;
10479;SDS011;12789;42.610;23.040;2022-08-03T01:57:25;4.47;;;1.60;;
10479;SDS011;12789;42.610;23.040;2022-08-03T01:59:55;2.65;;;1.38;;
10479;SDS011;12789;42.610;23.040;2022-08-03T02:02:26;7.85;;;2.30;;
10479;SDS011;12789;42.610;23.040;2022-08-03T02:04:55;3.42;;;2.10;;
10479;SDS011;12789;42.610;23.040;2022-08-03T02:07:26;8.07;;;2.00;;
10479;SDS011;12789;42.610;23.040;2022-08-03T02:09:55;3.55;;;2.08;;
10479;SDS011;12789;42.610;23.040;2022-08-03T02:12:24;6.05;;;2.40;;
10479;SDS011;12789;42.610;23.040;2022-08-03T02:14:53;5.50;;;2.50;;
10479;SDS011;12789;42.610;23.040;2022-08-03T02:17:22;6.88;;;2.50;;
10479;SDS011;12789;42.610;23.040;2022-08-03T02:19:53;5.82;;;2.50;;
10479;SDS011;12789;42.610;23.040;2022-08-03T02:22:22;5.60;;;2.38;;
10479;SDS011;12789;42.610;23.040;2022-08-03T02:24:50;5.70;;;2.30;;
10479;SDS011;12789;42.610;23.040;2022-08-03T02:27:19;2.50;;;2.30;;
10479;SDS011;12789;42.610;23.040;2022-08-03T02:29:48;2.28;;;1.83;;
10479;SDS011;12789;42.610;23.040;2022-08-03T02:32:19;6.68;;;2.20;;
10479;SDS011;12789;42.610;23.040;2022-08-03T02:34:52;6.88;;;2.20;;
10479;SDS011;12789;42.610;23.040;2022-08-03T02:37:21;7.85;;;2.42;;
10479;SDS011;12789;42.610;23.040;2022-08-03T02:39:52;8.80;;;2.00;;
10479;SDS011;12789;42.610;23.040;2022-08-03T02:42:23;3.97;;;2.08;;
10479;SDS011;12789;42.610;23.040;2022-08-03T02:44:52;5.50;;;2.80;;
10479;SDS011;12789;42.610;23.040;2022-08-03T02:47:22;5.22;;;2.10;;
10479;SDS011;12789;42.610;23.040;2022-08-03T02:49:55;5.15;;;1.70;;
10479;SDS011;12789;42.610;23.040;2022-08-03T02:52:24;4.15;;;2.00;;
10479;SDS011;12789;42.610;23.040;2022-08-03T02:54:55;2.10;;;1.90;;
10479;SDS011;12789;42.610;23.040;2022-08-03T02:57:24;7.32;;;2.28;;
10479;SDS011;12789;42.610;23.040;2022-08-03T02:59:53;7.70;;;2.22;;
10479;SDS011;12789;42.610;23.040;2022-08-03T03:02:21;8.27;;;1.80;;
10479;SDS011;12789;42.610;23.040;2022-08-03T03:04:49;9.55;;;1.73;;
10479;SDS011;12789;42.610;23.040;2022-08-03T03:07:19;6.05;;;2.20;;
10479;SDS011;12789;42.610;23.040;2022-08-03T03:09:46;4.03;;;2.20;;
10479;SDS011;12789;42.610;23.040;2022-08-03T03:12:14;7.50;;;2.20;;
10479;SDS011;12789;42.610;23.040;2022-08-03T03:14:42;6.63;;;2.03;;
10479;SDS011;12789;42.610;23.040;2022-08-03T03:17:10;10.25;;;2.33;;
10479;SDS011;12789;42.610;23.040;2022-08-03T03:19:38;7.95;;;2.05;;
10479;SDS011;12789;42.610;23.040;2022-08-03T03:22:09;5.75;;;2.78;;
10479;SDS011;12789;42.610;23.040;2022-08-03T03:24:40;4.75;;;2.22;;
10479;SDS011;12789;42.610;23.040;2022-08-03T03:27:10;7.65;;;2.28;;
10479;SDS011;12789;42.610;23.040;2022-08-03T03:29:39;4.88;;;2.20;;
10479;SDS011;12789;42.610;23.040;2022-08-03T03:32:06;6.63;;;2.50;;
10479;SDS011;12789;42.610;23.040;2022-08-03T03:34:33;8.10;;;2.95;;
10479;SDS011;12789;42.610;23.040;2022-08-03T03:37:01;8.60;;;3.00;;
10479;SDS011;12789;42.610;23.040;2022-08-03T03:39:29;7.63;;;3.30;;
10479;SDS011;12789;42.610;23.040;2022-08-03T03:41:58;11.77;;;3.10;;
10479;SDS011;12789;42.610;23.040;2022-08-03T03:44:26;8.98;;;3.35;;
10479;SDS011;12789;42.610;23.040;2022-08-03T03:46:54;17.10;;;3.30;;
10479;SDS011;12789;42.610;23.040;2022-08-03T03:49:22;9.02;;;2.75;;
10479;SDS011;12789;42.610;23.040;2022-08-03T03:51:51;8.90;;;3.20;;
10479;SDS011;12789;42.610;23.040;2022-08-03T03:54:19;11.20;;;3.08;;
10479;SDS011;12789;42.610;23.040;2022-08-03T03:56:51;5.93;;;2.63;;
10479;SDS011;12789;42.610;23.040;2022-08-03T03:59:20;7.07;;;3.03;;
10479;SDS011;12789;42.610;23.040;2022-08-03T04:01:47;4.57;;;2.92;;
10479;SDS011;12789;42.610;23.040;2022-08-03T04:04:16;3.78;;;2.67;;
10479;SDS011;12789;42.610;23.040;2022-08-03T04:07:07;8.57;;;3.05;;
10479;SDS011;12789;42.610;23.040;2022-08-03T04:10:05;14.70;;;4.10;;
10479;SDS011;12789;42.610;23.040;2022-08-03T04:13:08;6.78;;;3.08;;
10479;SDS011;12789;42.610;23.040;2022-08-03T04:16:13;6.25;;;2.78;;
10479;SDS011;12789;42.610;23.040;2022-08-03T04:18:58;10.98;;;3.30;;
10479;SDS011;12789;42.610;23.040;2022-08-03T04:22:00;8.38;;;3.00;;
10479;SDS011;12789;42.610;23.040;2022-08-03T04:24:40;7.93;;;3.40;;
10479;SDS011;12789;42.610;23.040;2022-08-03T04:27:25;6.38;;;3.00;;
10479;SDS011;12789;42.610;23.040;2022-08-03T04:30:27;9.27;;;2.67;;
10479;SDS011;12789;42.610;23.040;2022-08-03T04:33:26;9.00;;;2.90;;
10479;SDS011;12789;42.610;23.040;2022-08-03T04:36:15;9.75;;;3.25;;
10479;SDS011;12789;42.610;23.040;2022-08-03T04:39:44;13.37;;;3.40;;
10479;SDS011;12789;42.610;23.040;2022-08-03T04:42:49;10.35;;;2.95;;
10479;SDS011;12789;42.610;23.040;2022-08-03T04:45:53;11.85;;;3.30;;
10479;SDS011;12789;42.610;23.040;2022-08-03T04:49:25;17.98;;;3.20;;
10479;SDS011;12789;42.610;23.040;2022-08-03T04:52:28;20.45;;;3.50;;
10479;SDS011;12789;42.610;23.040;2022-08-03T04:55:26;23.15;;;4.10;;
10479;SDS011;12789;42.610;23.040;2022-08-03T04:58:13;24.85;;;3.78;;
10479;SDS011;12789;42.610;23.040;2022-08-03T05:01:17;17.50;;;4.00;;
10479;SDS011;12789;42.610;23.040;2022-08-03T05:03:54;23.58;;;4.50;;
10479;SDS011;12789;42.610;23.040;2022-08-03T05:06:23;22.40;;;4.80;;
10479;SDS011;12789;42.610;23.040;2022-08-03T05:08:51;17.87;;;4.63;;
10479;SDS011;12789;42.610;23.040;2022-08-03T05:11:19;26.13;;;4.68;;
10479;SDS011;12789;42.610;23.040;2022-08-03T05:13:46;14.15;;;4.35;;
10479;SDS011;12789;42.610;23.040;2022-08-03T05:16:13;13.00;;;4.43;;
10479;SDS011;12789;42.610;23.040;2022-08-03T05:18:40;12.73;;;4.10;;
10479;SDS011;12789;42.610;23.040;2022-08-03T05:21:13;14.88;;;4.50;;
10479;SDS011;12789;42.610;23.040;2022-08-03T05:23:42;28.38;;;4.55;;
10479;SDS011;12789;42.610;23.040;2022-08-03T05:26:10;11.73;;;3.42;;
10479;SDS011;12789;42.610;23.040;2022-08-03T05:28:37;14.32;;;4.15;;
10479;SDS011;12789;42.610;23.040;2022-08-03T05:31:04;12.82;;;4.30;;
10479;SDS011;12789;42.610;23.040;2022-08-03T05:33:31;15.05;;;4.15;;
10479;SDS011;12789;42.610;23.040;2022-08-03T05:35:58;21.40;;;3.95;;
10479;SDS011;12789;42.610;23.040;2022-08-03T05:38:25;22.20;;;3.95;;
10479;SDS011;12789;42.610;23.040;2022-08-03T05:40:54;17.92;;;3.80;;
10479;SDS011;12789;42.610;23.040;2022-08-03T05:43:21;13.00;;;3.90;;
10479;SDS011;12789;42.610;23.040;2022-08-03T05:45:49;14.43;;;3.67;;
10479;SDS011;12789;42.610;23.040;2022-08-03T05:48:16;12.90;;;4.07;;
10479;SDS011;12789;42.610;23.040;2022-08-03T05:50:43;9.68;;;3.13;;
10479;SDS011;12789;42.610;23.040;2022-08-03T05:53:11;11.38;;;3.53;;
10479;SDS011;12789;42.610;23.040;2022-08-03T05:55:38;8.88;;;3.30;;
10479;SDS011;12789;42.610;23.040;2022-08-03T05:58:06;16.83;;;3.38;;
10479;SDS011;12789;42.610;23.040;2022-08-03T06:00:34;8.27;;;3.10;;
10479;SDS011;12789;42.610;23.040;2022-08-03T06:03:01;10.07;;;3.45;;
10479;SDS011;12789;42.610;23.040;2022-08-03T06:05:28;7.43;;;3.55;;
10479;SDS011;12789;42.610;23.040;2022-08-03T06:07:55;8.63;;;3.25;;
10479;SDS011;12789;42.610;23.040;2022-08-03T06:10:22;10.75;;;3.40;;
10479;SDS011;12789;42.610;23.040;2022-08-03T06:12:50;10.48;;;3.72;;
10479;SDS011;12789;42.610;23.040;2022-08-03T06:15:18;7.40;;;2.85;;
10479;SDS011;12789;42.610;23.040;2022-08-03T06:17:46;8.27;;;3.42;;
10479;SDS011;12789;42.610;23.040;2022-08-03T06:20:15;24.30;;;4.68;;
10479;SDS011;12789;42.610;23.040;2022-08-03T06:22:43;9.60;;;3.13;;
10479;SDS011;12789;42.610;23.040;2022-08-03T06:25:10;11.77;;;3.45;;
10479;SDS011;12789;42.610;23.040;2022-08-03T06:27:37;8.98;;;3.25;;
10479;SDS011;12789;42.610;23.040;2022-08-03T06:30:05;20.33;;;3.47;;
10479;SDS011;12789;42.610;23.040;2022-08-03T06:32:36;13.13;;;3.35;;
10479;SDS011;12789;42.610;23.040;2022-08-03T06:35:03;12.98;;;3.90;;
10479;SDS011;12789;42.610;23.040;2022-08-03T06:37:30;7.95;;;2.92;;
10479;SDS011;12789;42.610;23.040;2022-08-03T06:39:57;9.85;;;2.80;;
10479;SDS011;12789;42.610;23.040;2022-08-03T06:42:24;12.27;;;2.90;;
10479;SDS011;12789;42.610;23.040;2022-08-03T06:44:51;9.63;;;2.90;;
10479;SDS011;12789;42.610;23.040;2022-08-03T06:47:18;8.98;;;2.88;;
10479;SDS011;12789;42.610;23.040;2022-08-03T06:49:47;20.92;;;3.55;;
10479;SDS011;12789;42.610;23.040;2022-08-03T06:52:14;10.35;;;3.03;;
10479;SDS011;12789;42.610;23.040;2022-08-03T06:54:41;14.30;;;2.70;;
10479;SDS011;12789;42.610;23.040;2022-08-03T06:57:08;7.85;;;2.35;;
10479;SDS011;12789;42.610;23.040;2022-08-03T06:59:35;4.10;;;2.30;;
10479;SDS011;12789;42.610;23.040;2022-08-03T07:02:02;11.35;;;2.80;;
10479;SDS011;12789;42.610;23.040;2022-08-03T07:04:29;4.40;;;2.60;;
10479;SDS011;12789;42.610;23.040;2022-08-03T07:06:58;11.30;;;2.90;;
10479;SDS011;12789;42.610;23.040;2022-08-03T07:09:24;7.47;;;2.50;;
10479;SDS011;12789;42.610;23.040;2022-08-03T07:11:52;5.10;;;2.40;;
10479;SDS011;12789;42.610;23.040;2022-08-03T07:14:20;3.90;;;2.38;;
10479;SDS011;12789;42.610;23.040;2022-08-03T07:16:46;4.47;;;2.00;;
10479;SDS011;12789;42.610;23.040;2022-08-03T07:19:13;4.28;;;1.80;;
10479;SDS011;12789;42.610;23.040;2022-08-03T07:21:41;2.05;;;1.67;;
10479;SDS011;12789;42.610;23.040;2022-08-03T07:24:10;7.95;;;1.75;;
10479;SDS011;12789;42.610;23.040;2022-08-03T07:26:39;2.72;;;1.67;;
10479;SDS011;12789;42.610;23.040;2022-08-03T07:29:05;1.92;;;1.30;;
10479;SDS011;12789;42.610;23.040;2022-08-03T07:31:32;2.40;;;1.42;;
10479;SDS011;12789;42.610;23.040;2022-08-03T07:34:00;5.63;;;1.60;;
10479;SDS011;12789;42.610;23.040;2022-08-03T07:36:26;3.75;;;1.88;;
10479;SDS011;12789;42.610;23.040;2022-08-03T07:38:53;3.88;;;1.40;;
10479;SDS011;12789;42.610;23.040;2022-08-03T07:41:23;2.58;;;1.40;;
10479;SDS011;12789;42.610;23.040;2022-08-03T07:43:50;3.47;;;1.20;;
10479;SDS011;12789;42.610;23.040;2022-08-03T07:46:17;2.60;;;1.25;;
10479;SDS011;12789;42.610;23.040;2022-08-03T07:48:45;2.60;;;1.10;;
10479;SDS011;12789;42.610;23.040;2022-08-03T07:51:11;2.00;;;1.30;;
10479;SDS011;12789;42.610;23.040;2022-08-03T07:53:39;2.55;;;1.13;;
10479;SDS011;12789;42.610;23.040;2022-08-03T07:56:06;1.08;;;1.02;;
10479;SDS011;12789;42.610;23.040;2022-08-03T07:58:35;1.45;;;1.00;;
10479;SDS011;12789;42.610;23.040;2022-08-03T08:01:02;1.13;;;1.10;;
10479;SDS011;12789;42.610;23.040;2022-08-03T08:03:29;1.38;;;1.27;;
10479;SDS011;12789;42.610;23.040;2022-08-03T08:05:56;3.20;;;1.23;;
10479;SDS011;12789;42.610;23.040;2022-08-03T08:08:23;1.42;;;1.00;;
10479;SDS011;12789;42.610;23.040;2022-08-03T08:10:50;1.33;;;0.85;;
10479;SDS011;12789;42.610;23.040;2022-08-03T08:13:17;1.33;;;1.23;;
10479;SDS011;12789;42.610;23.040;2022-08-03T08:15:45;1.10;;;1.00;;
10479;SDS011;12789;42.610;23.040;2022-08-03T08:18:13;1.10;;;1.00;;
10479;SDS011;12789;42.610;23.040;2022-08-03T08:20:40;1.38;;;0.95;;
10479;SDS011;12789;42.610;23.040;2022-08-03T08:23:07;3.13;;;1.23;;
10479;SDS011;12789;42.610;23.040;2022-08-03T08:25:35;1.10;;;1.00;;
10479;SDS011;12789;42.610;23.040;2022-08-03T08:28:02;0.88;;;0.80;;
10479;SDS011;12789;42.610;23.040;2022-08-03T08:30:29;1.00;;;0.93;;
10479;SDS011;12789;42.610;23.040;2022-08-03T08:32:59;3.17;;;1.20;;
10479;SDS011;12789;42.610;23.040;2022-08-03T08:35:26;1.38;;;1.05;;
10479;SDS011;12789;42.610;23.040;2022-08-03T08:37:53;1.58;;;1.15;;
10479;SDS011;12789;42.610;23.040;2022-08-03T08:40:21;1.40;;;0.82;;
10479;SDS011;12789;42.610;23.040;2022-08-03T08:42:48;4.10;;;1.02;;
10479;SDS011;12789;42.610;23.040;2022-08-03T08:45:16;1.38;;;1.10;;
10479;SDS011;12789;42.610;23.040;2022-08-03T08:47:44;1.70;;;1.60;;
10479;SDS011;12789;42.610;23.040;2022-08-03T08:50:15;1.20;;;1.10;;
10479;SDS011;12789;42.610;23.040;2022-08-03T08:52:45;3.40;;;1.20;;
10479;SDS011;12789;42.610;23.040;2022-08-03T08:55:14;1.15;;;1.08;;
10479;SDS011;12789;42.610;23.040;2022-08-03T08:57:47;2.58;;;1.40;;
10479;SDS011;12789;42.610;23.040;2022-08-03T09:00:15;3.33;;;1.10;;
10479;SDS011;12789;42.610;23.040;2022-08-03T09:02:43;0.80;;;0.80;;
10479;SDS011;12789;42.610;23.040;2022-08-03T09:05:11;1.30;;;0.95;;
10479;SDS011;12789;42.610;23.040;2022-08-03T09:07:40;0.88;;;0.88;;
10479;SDS011;12789;42.610;23.040;2022-08-03T09:10:08;1.40;;;1.10;;
10479;SDS011;12789;42.610;23.040;2022-08-03T09:12:36;2.60;;;1.15;;
10479;SDS011;12789;42.610;23.040;2022-08-03T09:15:21;1.30;;;1.20;;
10479;SDS011;12789;42.610;23.040;2022-08-03T09:17:54;2.45;;;1.08;;
10479;SDS011;12789;42.610;23.040;2022-08-03T09:20:23;1.25;;;1.02;;
10479;SDS011;12789;42.610;23.040;2022-08-03T09:22:54;1.20;;;1.10;;
10479;SDS011;12789;42.610;23.040;2022-08-03T09:25:27;2.22;;;0.95;;
10479;SDS011;12789;42.610;23.040;2022-08-03T09:28:03;1.10;;;1.00;;
10479;SDS011;12789;42.610;23.040;2022-08-03T09:30:32;2.08;;;1.40;;
10479;SDS011;12789;42.610;23.040;2022-08-03T09:33:01;1.90;;;1.42;;
10479;SDS011;12789;42.610;23.040;2022-08-03T09:35:29;1.30;;;1.20;;
10479;SDS011;12789;42.610;23.040;2022-08-03T09:38:10;1.10;;;1.10;;
10479;SDS011;12789;42.610;23.040;2022-08-03T09:40:38;2.28;;;1.35;;
10479;SDS011;12789;42.610;23.040;2022-08-03T09:43:06;2.13;;;1.13;;
10479;SDS011;12789;42.610;23.040;2022-08-03T09:45:34;5.00;;;1.20;;
10479;SDS011;12789;42.610;23.040;2022-08-03T09:50:47;3.60;;;2.08;;
10479;SDS011;12789;42.610;23.040;2022-08-03T09:53:17;2.35;;;1.50;;
10479;SDS011;12789;42.610;23.040;2022-08-03T09:55:52;2.85;;;1.77;;
10479;SDS011;12789;42.610;23.040;2022-08-03T09:58:21;1.65;;;1.55;;
10479;SDS011;12789;42.610;23.040;2022-08-03T10:00:53;2.75;;;1.70;;
10479;SDS011;12789;42.610;23.040;2022-08-03T10:03:21;1.50;;;1.40;;
10479;SDS011;12789;42.610;23.040;2022-08-03T10:05:49;2.05;;;1.95;;
10479;SDS011;12789;42.610;23.040;2022-08-03T10:08:18;1.73;;;1.63;;
10479;SDS011;12789;42.610;23.040;2022-08-03T10:10:46;1.90;;;1.80;;
10479;SDS011;12789;42.610;23.040;2022-08-03T10:13:14;1.50;;;1.40;;
10479;SDS011;12789;42.610;23.040;2022-08-03T10:15:43;4.47;;;2.08;;
10479;SDS011;12789;42.610;23.040;2022-08-03T10:18:10;6.18;;;2.03;;
10479;SDS011;12789;42.610;23.040;2022-08-03T10:20:40;5.85;;;2.28;;
10479;SDS011;12789;42.610;23.040;2022-08-03T10:23:11;2.00;;;1.90;;
10479;SDS011;12789;42.610;23.040;2022-08-03T10:25:43;2.78;;;2.40;;
10479;SDS011;12789;42.610;23.040;2022-08-03T10:28:14;2.10;;;2.00;;
10479;SDS011;12789;42.610;23.040;2022-08-03T10:30:47;4.53;;;2.15;;
10479;SDS011;12789;42.610;23.040;2022-08-03T10:33:16;2.50;;;2.40;;
10479;SDS011;12789;42.610;23.040;2022-08-03T10:35:46;2.50;;;2.40;;
10479;SDS011;12789;42.610;23.040;2022-08-03T10:38:16;3.03;;;2.83;;
10479;SDS011;12789;42.610;23.040;2022-08-03T10:40:49;3.35;;;2.63;;
10479;SDS011;12789;42.610;23.040;2022-08-03T10:43:19;4.28;;;2.45;;
10479;SDS011;12789;42.610;23.040;2022-08-03T10:45:48;2.55;;;2.22;;
10479;SDS011;12789;42.610;23.040;2022-08-03T10:48:16;4.20;;;2.22;;
10479;SDS011;12789;42.610;23.040;2022-08-03T10:50:45;6.20;;;2.58;;
10479;SDS011;12789;42.610;23.040;2022-08-03T10:53:13;4.50;;;2.45;;
10479;SDS011;12789;42.610;23.040;2022-08-03T10:55:41;2.42;;;2.33;;
10479;SDS011;12789;42.610;23.040;2022-08-03T11:01:18;3.25;;;2.10;;
10479;SDS011;12789;42.610;23.040;2022-08-03T11:04:14;2.10;;;2.00;;
10479;SDS011;12789;42.610;23.040;2022-08-03T11:06:43;2.30;;;2.10;;
10479;SDS011;12789;42.610;23.040;2022-08-03T11:09:15;2.20;;;2.00;;
10479;SDS011;12789;42.610;23.040;2022-08-03T11:11:44;2.47;;;2.30;;
10479;SDS011;12789;42.610;23.040;2022-08-03T11:14:14;5.35;;;1.83;;
10479;SDS011;12789;42.610;23.040;2022-08-03T11:16:44;1.70;;;1.60;;
10479;SDS011;12789;42.610;23.040;2022-08-03T11:19:14;4.60;;;2.00;;
10479;SDS011;12789;42.610;23.040;2022-08-03T11:21:51;2.15;;;2.03;;
10479;SDS011;12789;42.610;23.040;2022-08-03T11:27:24;4.30;;;1.63;;
10479;SDS011;12789;42.610;23.040;2022-08-03T11:30:09;1.40;;;1.40;;
10479;SDS011;12789;42.610;23.040;2022-08-03T11:32:51;2.00;;;1.90;;
10479;SDS011;12789;42.610;23.040;2022-08-03T11:35:28;1.65;;;1.55;;
10479;SDS011;12789;42.610;23.040;2022-08-03T11:38:02;4.65;;;1.50;;
10479;SDS011;12789;42.610;23.040;2022-08-03T11:40:32;7.65;;;1.30;;
10479;SDS011;12789;42.610;23.040;2022-08-03T11:43:00;5.43;;;1.38;;
10479;SDS011;12789;42.610;23.040;2022-08-03T11:45:29;3.72;;;1.33;;
10479;SDS011;12789;42.610;23.040;2022-08-03T11:47:56;7.63;;;1.60;;
10479;SDS011;12789;42.610;23.040;2022-08-03T11:50:34;4.20;;;1.65;;
10479;SDS011;12789;42.610;23.040;2022-08-03T11:53:02;2.83;;;1.70;;
10479;SDS011;12789;42.610;23.040;2022-08-03T11:55:31;2.33;;;1.45;;
10479;SDS011;12789;42.610;23.040;2022-08-03T11:57:58;4.53;;;1.30;;
10479;SDS011;12789;42.610;23.040;2022-08-03T12:00:26;7.47;;;1.65;;
10479;SDS011;12789;42.610;23.040;2022-08-03T12:02:56;9.90;;;2.78;;
10479;SDS011;12789;42.610;23.040;2022-08-03T12:05:35;8.65;;;1.77;;
10479;SDS011;12789;42.610;23.040;2022-08-03T12:08:07;5.97;;;1.67;;
10479;SDS011;12789;42.610;23.040;2022-08-03T12:10:38;3.50;;;1.30;;
10479;SDS011;12789;42.610;23.040;2022-08-03T12:13:06;5.03;;;1.45;;
10479;SDS011;12789;42.610;23.040;2022-08-03T12:15:34;2.13;;;1.40;;
10479;SDS011;12789;42.610;23.040;2022-08-03T12:18:12;5.25;;;1.40;;
10479;SDS011;12789;42.610;23.040;2022-08-03T12:20:40;2.67;;;1.40;;
10479;SDS011;12789;42.610;23.040;2022-08-03T12:23:08;1.98;;;1.33;;
10479;SDS011;12789;42.610;23.040;2022-08-03T12:25:38;1.30;;;1.20;;
10479;SDS011;12789;42.610;23.040;2022-08-03T12:28:09;5.18;;;1.30;;
10479;SDS011;12789;42.610;23.040;2022-08-03T12:30:43;2.40;;;1.13;;
10479;SDS011;12789;42.610;23.040;2022-08-03T12:33:16;1.27;;;0.80;;
10479;SDS011;12789;42.610;23.040;2022-08-03T12:35:48;1.58;;;1.23;;
10479;SDS011;12789;42.610;23.040;2022-08-03T12:38:20;2.78;;;0.98;;
10479;SDS011;12789;42.610;23.040;2022-08-03T12:40:55;3.97;;;1.00;;
10479;SDS011;12789;42.610;23.040;2022-08-03T12:43:24;1.10;;;1.00;;
10479;SDS011;12789;42.610;23.040;2022-08-03T12:45:51;0.65;;;0.65;;
10479;SDS011;12789;42.610;23.040;2022-08-03T12:48:34;1.50;;;0.73;;
10479;SDS011;12789;42.610;23.040;2022-08-03T12:51:08;1.02;;;0.93;;
10479;SDS011;12789;42.610;23.040;2022-08-03T12:53:36;2.22;;;0.70;;
10479;SDS011;12789;42.610;23.040;2022-08-03T12:56:03;2.28;;;0.90;;
10479;SDS011;12789;42.610;23.040;2022-08-03T12:58:31;0.75;;;0.75;;
10479;SDS011;12789;42.610;23.040;2022-08-03T13:01:00;3.70;;;1.13;;
10479;SDS011;12789;42.610;23.040;2022-08-03T13:03:27;1.00;;;1.00;;
10479;SDS011;12789;42.610;23.040;2022-08-03T13:05:56;0.98;;;0.80;;
10479;SDS011;12789;42.610;23.040;2022-08-03T13:08:25;1.00;;;0.90;;
10479;SDS011;12789;42.610;23.040;2022-08-03T13:10:51;1.65;;;1.10;;
10479;SDS011;12789;42.610;23.040;2022-08-03T13:16:04;1.48;;;1.08;;
10479;SDS011;12789;42.610;23.040;2022-08-03T13:18:31;4.22;;;1.13;;
10479;SDS011;12789;42.610;23.040;2022-08-03T13:20:59;4.55;;;1.23;;
10479;SDS011;12789;42.610;23.040;2022-08-03T13:23:26;1.85;;;1.20;;
10479;SDS011;12789;42.610;23.040;2022-08-03T13:25:53;2.42;;;1.30;;
10479;SDS011;12789;42.610;23.040;2022-08-03T13:28:21;5.57;;;1.35;;
10479;SDS011;12789;42.610;23.040;2022-08-03T13:30:48;3.55;;;1.10;;
10479;SDS011;12789;42.610;23.040;2022-08-03T13:33:15;4.18;;;1.05;;
10479;SDS011;12789;42.610;23.040;2022-08-03T13:35:43;2.38;;;1.25;;
10479;SDS011;12789;42.610;23.040;2022-08-03T13:38:11;4.35;;;1.25;;
10479;SDS011;12789;42.610;23.040;2022-08-03T13:40:38;1.38;;;1.27;;
10479;SDS011;12789;42.610;23.040;2022-08-03T13:43:05;5.15;;;1.30;;
10479;SDS011;12789;42.610;23.040;2022-08-03T13:45:32;2.67;;;1.00;;
10479;SDS011;12789;42.610;23.040;2022-08-03T13:47:59;2.42;;;1.30;;
10479;SDS011;12789;42.610;23.040;2022-08-03T13:50:26;1.85;;;1.13;;
10479;SDS011;12789;42.610;23.040;2022-08-03T13:52:54;3.28;;;1.23;;
10479;SDS011;12789;42.610;23.040;2022-08-03T13:55:22;4.13;;;1.65;;
10479;SDS011;12789;42.610;23.040;2022-08-03T13:57:50;2.72;;;2.08;;
10479;SDS011;12789;42.610;23.040;2022-08-03T14:00:17;4.18;;;1.38;;
10479;SDS011;12789;42.610;23.040;2022-08-03T14:02:48;2.65;;;0.98;;
10479;SDS011;12789;42.610;23.040;2022-08-03T14:05:15;4.57;;;1.27;;
10479;SDS011;12789;42.610;23.040;2022-08-03T14:07:42;2.97;;;1.27;;
10479;SDS011;12789;42.610;23.040;2022-08-03T14:10:09;3.67;;;1.27;;
10479;SDS011;12789;42.610;23.040;2022-08-03T14:12:38;2.20;;;0.75;;
10479;SDS011;12789;42.610;23.040;2022-08-03T14:15:05;2.80;;;1.58;;
10479;SDS011;12789;42.610;23.040;2022-08-03T14:17:34;13.43;;;1.77;;
10479;SDS011;12789;42.610;23.040;2022-08-03T14:20:01;2.30;;;1.30;;
10479;SDS011;12789;42.610;23.040;2022-08-03T14:22:30;4.20;;;1.40;;
10479;SDS011;12789;42.610;23.040;2022-08-03T14:24:57;6.32;;;1.50;;
10479;SDS011;12789;42.610;23.040;2022-08-03T14:27:24;3.55;;;1.25;;
10479;SDS011;12789;42.610;23.040;2022-08-03T14:29:56;2.28;;;1.10;;
10479;SDS011;12789;42.610;23.040;2022-08-03T14:32:25;1.25;;;1.10;;
10479;SDS011;12789;42.610;23.040;2022-08-03T14:34:53;2.05;;;1.33;;
10479;SDS011;12789;42.610;23.040;2022-08-03T14:37:20;2.75;;;1.20;;
10479;SDS011;12789;42.610;23.040;2022-08-03T14:39:47;3.63;;;1.25;;
10479;SDS011;12789;42.610;23.040;2022-08-03T14:42:14;1.38;;;1.27;;
10479;SDS011;12789;42.610;23.040;2022-08-03T14:44:41;2.92;;;1.20;;
10479;SDS011;12789;42.610;23.040;2022-08-03T14:47:10;1.15;;;1.05;;
10479;SDS011;12789;42.610;23.040;2022-08-03T14:49:37;1.30;;;1.20;;
10479;SDS011;12789;42.610;23.040;2022-08-03T14:52:04;0.90;;;0.90;;
10479;SDS011;12789;42.610;23.040;2022-08-03T14:54:32;5.32;;;1.70;;
10479;SDS011;12789;42.610;23.040;2022-08-03T14:56:59;2.58;;;1.13;;
10479;SDS011;12789;42.610;23.040;2022-08-03T14:59:26;1.30;;;1.20;;
10479;SDS011;12789;42.610;23.040;2022-08-03T15:01:53;2.00;;;1.02;;
10479;SDS011;12789;42.610;23.040;2022-08-03T15:04:22;1.10;;;1.00;;
10479;SDS011;12789;42.610;23.040;2022-08-03T15:06:49;1.67;;;1.00;;